Airfield :
LOGIN :

Register | Disclaimer

   EN    FR    IT 

 










Legend :    VFR   Marginal VFR   IFR   Intensive IFR   Very Intensive IFR
Visi :
Ceiling :
>= 8 km
>= 3000ft
5 to 8 km
1000 to 3000 ft
1500m to 5 km
500 to 1000 ft
800 to 1500m
200 to 500 ft
< 800m
< 200 ft
Symbols :   Thunderstorms  Fog  Heavy snow  Heavy precipitations  Wind > 20 kt
SIGMETs :     Misc.  Thunderstorms  Icing  Turbulence  Mountain Waves  Volcanic Ashes






- Airport Elevation : 7 ft
- IATA code : ESH


EGKA - Shoreham

CURRENT METAR :
  • 191750Z 30010KT CAVOK 22/10 Q1016

EXPIRED METARs :
  • 191720Z 30012KT CAVOK 23/10 Q1015
  • 191650Z 30012KT CAVOK 23/09 Q1015
  • 191620Z 31011KT CAVOK 24/14 Q1015
  • 191550Z 22016KT 9999 FEW045 23/14 Q1014

TAF TAF EGKA
Valid from the 19 at 15:00 until the 19 at 19:00 UTC


191359Z 1915/1919 27009KT 9999 SCT020
ATIS : +44 1273 467 372



MET'MAP, your aeronautical weather chart ! - Copyright ORBIFLY December 2007 - Disclaimer

ORBIFLY MET'MAP TEAM :

Programming & Development : Alexandra Zaïnal
Original concept : Baudouin d'Aumeries
Technical & hardware support : Manuel Goepfert
Assistance : Marc-Olivier Méhu




SOURCES & CREDITS :

   NOAA